Aqua Ramon, Colorado
Current Conditions -  °F | °C
As of 6:25 AM on Thursday 27 Nov 2014 (Local Time) from KRCV Reporting Station
Clear Clear  
Wind Chill: 11°   Ceiling: Unl
Heat Index: 20°   Visibility: 10mi
Dew Point: 10°   Wind: 7mph
Humidity: 64%   Direction: 250°WSW
Pressure: 30.51"   Gusts: NA
Location:  37.6359°N, 106.449°W
Report Text: KRCV 271325Z AUTO 25006KT 10SM CLR M06/M12 A3051 RMK AO2 T10651123
Loading
Personal Weather Stations






























Interactive Weather Map New forecast layout! Learn more

10-Day Weather Forecast

Advertisements
Track Severe Weather on mobile